Time;durP1;ratioP1;P1;durP2;ratioP2;P2;SDS_P1;SDS_P2;PMS_P1;PMS_P2;Temp;Humidity;BMP_temperature;BMP_pressure;BME280_temperature;BME280_humidity;BME280_pressure;Samples;Min_cycle;Max_cycle;Signal;HPM_P1;HPM_P2
2024/04/09 00:01:20;;;;;;;25.60;13.00;;;;;;;;;;5414323;26;19980;-38
2024/04/09 00:03:47;;;;;;;20.17;12.52;;;;;;;;;;5396527;26;19988;-38
2024/04/09 00:06:19;;;;;;;27.25;12.57;;;;;;;;;;5396506;26;20027;-37
2024/04/09 00:08:46;;;;;;;23.25;13.15;;;;;;;;;;5396385;26;20090;-37
2024/04/09 00:11:22;;;;;;;30.42;12.57;;;;;;;;;;5396125;26;20205;-35
2024/04/09 00:13:49;;;;;;;23.48;12.45;;;;;;;;;;5413247;26;19992;-43
2024/04/09 00:16:15;;;;;;;24.88;12.98;;;;;;;;;;5431859;26;19994;-40
2024/04/09 00:18:42;;;;;;;22.65;13.32;;;;;;;;;;5432049;26;20003;-45
2024/04/09 00:21:09;;;;;;;28.58;13.35;;;;;;;;;;5431857;26;19995;-39
2024/04/09 00:23:35;;;;;;;23.35;12.98;;;;;;;;;;5431624;26;19987;-37
2024/04/09 00:26:02;;;;;;;29.98;14.07;;;;;;;;;;5431744;26;19995;-43
2024/04/09 00:28:29;;;;;;;23.25;13.68;;;;;;;;;;5431790;26;19983;-39
2024/04/09 00:30:56;;;;;;;23.92;14.52;;;;;;;;;;5431599;26;19987;-39
2024/04/09 00:33:23;;;;;;;27.45;15.20;;;;;;;;;;5422290;26;20101;-41
2024/04/09 00:35:51;;;;;;;26.27;14.82;;;;;;;;;;5396294;26;19988;-44
2024/04/09 00:38:19;;;;;;;22.48;15.13;;;;;;;;;;5395842;26;20000;-42
2024/04/09 00:40:47;;;;;;;26.58;16.52;;;;;;;;;;5419966;26;20150;-42
2024/04/09 00:43:13;;;;;;;25.42;15.77;;;;;;;;;;5431635;26;20049;-39
2024/04/09 00:45:43;;;;;;;22.67;14.30;;;;;;;;;;5431540;26;20016;-39
2024/04/09 00:48:11;;;;;;;23.70;14.57;;;;;;;;;;5431433;26;19999;-45
2024/04/09 00:50:41;;;;;;;26.92;15.30;;;;;;;;;;5420328;26;20197;-44
2024/04/09 00:53:10;;;;;;;25.65;14.73;;;;;;;;;;5405445;26;19996;-38
2024/04/09 00:55:42;;;;;;;19.48;14.32;;;;;;;;;;5396058;26;19985;-50
2024/04/09 00:58:11;;;;;;;27.73;15.25;;;;;;;;;;5412000;26;19999;-39
2024/04/09 01:00:41;;;;;;;26.33;15.73;;;;;;;;;;5398237;26;19996;-50
2024/04/09 01:03:09;;;;;;;20.98;14.25;;;;;;;;;;5411491;26;19984;-47
2024/04/09 01:05:36;;;;;;;27.75;15.40;;;;;;;;;;5395631;26;20096;-52
2024/04/09 01:08:03;;;;;;;22.77;16.00;;;;;;;;;;5395738;26;19988;-47
2024/04/09 01:10:30;;;;;;;23.60;16.08;;;;;;;;;;5395558;26;19999;-49
2024/04/09 01:12:57;;;;;;;23.02;16.20;;;;;;;;;;5395103;26;19989;-42
2024/04/09 01:15:24;;;;;;;24.75;15.98;;;;;;;;;;5395520;26;19988;-47
2024/04/09 01:17:51;;;;;;;27.17;15.77;;;;;;;;;;5395440;26;20039;-49
2024/04/09 01:20:17;;;;;;;25.83;15.43;;;;;;;;;;5395155;26;20045;-45
2024/04/09 01:22:45;;;;;;;29.25;16.65;;;;;;;;;;5394359;26;19995;-52
2024/04/09 01:25:11;;;;;;;34.00;21.35;;;;;;;;;;5395401;26;19999;-51
2024/04/09 01:27:38;;;;;;;38.30;24.35;;;;;;;;;;5395040;26;20007;-49
2024/04/09 01:30:06;;;;;;;41.00;23.73;;;;;;;;;;5395179;26;19988;-50
2024/04/09 01:32:32;;;;;;;30.00;18.77;;;;;;;;;;5394463;26;19996;-53
2024/04/09 01:35:06;;;;;;;24.90;16.40;;;;;;;;;;5409298;26;19991;-50
2024/04/09 01:37:33;;;;;;;28.73;15.63;;;;;;;;;;5398281;26;19996;-44
2024/04/09 01:40:00;;;;;;;27.88;15.30;;;;;;;;;;5394959;26;19992;-47
2024/04/09 01:42:26;;;;;;;24.10;14.68;;;;;;;;;;5394538;26;19992;-48
2024/04/09 01:44:53;;;;;;;22.73;15.02;;;;;;;;;;5394850;26;20146;-48
2024/04/09 01:47:21;;;;;;;24.85;14.52;;;;;;;;;;5394866;26;19995;-36
2024/04/09 01:49:48;;;;;;;24.02;14.57;;;;;;;;;;5394817;26;20135;-43
2024/04/09 01:52:14;;;;;;;20.40;13.90;;;;;;;;;;5394700;26;20034;-46
2024/04/09 01:54:44;;;;;;;24.88;14.60;;;;;;;;;;5394755;26;20017;-50
2024/04/09 01:57:11;;;;;;;21.92;13.43;;;;;;;;;;5394418;26;20209;-45
2024/04/09 01:59:41;;;;;;;24.67;13.68;;;;;;;;;;5394495;26;19992;-46
2024/04/09 02:02:08;;;;;;;23.42;13.73;;;;;;;;;;5429220;26;20011;-49
2024/04/09 02:04:35;;;;;;;24.45;13.73;;;;;;;;;;5429929;26;19988;-39
2024/04/09 02:07:01;;;;;;;24.17;14.13;;;;;;;;;;5412574;26;20011;-41
2024/04/09 02:09:28;;;;;;;22.88;13.65;;;;;;;;;;5426302;26;19984;-44
2024/04/09 02:11:55;;;;;;;25.13;12.88;;;;;;;;;;5429826;26;20003;-36
2024/04/09 02:14:22;;;;;;;25.67;13.25;;;;;;;;;;5430133;26;19988;-40
2024/04/09 02:16:48;;;;;;;20.55;12.85;;;;;;;;;;5421632;26;19992;-38
2024/04/09 02:19:15;;;;;;;28.67;14.02;;;;;;;;;;5409790;26;20013;-47
2024/04/09 02:21:42;;;;;;;17.35;12.32;;;;;;;;;;5394314;26;20165;-43
2024/04/09 02:24:09;;;;;;;23.40;13.68;;;;;;;;;;5394294;26;19985;-44
2024/04/09 02:26:36;;;;;;;22.15;13.20;;;;;;;;;;5393889;26;19984;-37
2024/04/09 02:29:03;;;;;;;20.73;12.40;;;;;;;;;;5394217;26;20111;-47
2024/04/09 02:31:29;;;;;;;19.30;12.65;;;;;;;;;;5393942;26;20201;-38
2024/04/09 02:33:56;;;;;;;26.20;12.95;;;;;;;;;;5395291;26;20118;-37
2024/04/09 02:36:22;;;;;;;19.52;11.98;;;;;;;;;;5402704;26;20083;-41
2024/04/09 02:38:49;;;;;;;23.02;13.38;;;;;;;;;;5417594;26;20096;-38
2024/04/09 02:41:17;;;;;;;21.63;13.68;;;;;;;;;;5433138;26;19999;-44
2024/04/09 02:43:43;;;;;;;16.65;12.32;;;;;;;;;;5433080;26;19987;-39
2024/04/09 02:46:10;;;;;;;19.75;13.23;;;;;;;;;;5432970;26;20044;-37
2024/04/09 02:48:36;;;;;;;22.38;13.52;;;;;;;;;;5432872;26;19988;-39
2024/04/09 02:51:04;;;;;;;17.67;12.05;;;;;;;;;;5432739;26;20044;-38
2024/04/09 02:53:32;;;;;;;20.17;13.07;;;;;;;;;;5421536;26;20008;-37
2024/04/09 02:56:01;;;;;;;19.63;13.05;;;;;;;;;;5409312;26;19984;-39
2024/04/09 02:58:28;;;;;;;21.70;12.82;;;;;;;;;;5405377;26;20091;-38
2024/04/09 03:00:55;;;;;;;19.45;12.60;;;;;;;;;;5416933;26;19993;-45
2024/04/09 03:03:22;;;;;;;20.75;12.65;;;;;;;;;;5396938;26;20254;-43
2024/04/09 03:05:49;;;;;;;17.83;12.80;;;;;;;;;;5416505;26;19987;-37
2024/04/09 03:08:16;;;;;;;20.73;13.38;;;;;;;;;;5397210;26;20135;-35
2024/04/09 03:10:42;;;;;;;19.65;12.70;;;;;;;;;;5416360;26;20003;-39
2024/04/09 03:13:09;;;;;;;16.80;12.43;;;;;;;;;;5397180;26;19988;-40
2024/04/09 03:15:37;;;;;;;17.77;12.38;;;;;;;;;;5397154;26;20139;-37
2024/04/09 03:18:03;;;;;;;15.45;11.82;;;;;;;;;;5396802;26;19995;-44
2024/04/09 03:20:30;;;;;;;19.45;13.05;;;;;;;;;;5397089;26;20034;-38
2024/04/09 03:22:57;;;;;;;20.00;12.98;;;;;;;;;;5397071;26;19988;-42
2024/04/09 03:25:23;;;;;;;18.92;12.52;;;;;;;;;;5396788;26;20002;-37
2024/04/09 03:27:50;;;;;;;20.00;12.25;;;;;;;;;;5404338;26;20541;-38
2024/04/09 03:30:16;;;;;;;19.10;12.35;;;;;;;;;;5421052;26;20206;-44
2024/04/09 03:32:43;;;;;;;18.05;12.27;;;;;;;;;;5432278;26;19991;-42
2024/04/09 03:35:09;;;;;;;16.83;11.55;;;;;;;;;;5432222;26;20046;-39
2024/04/09 03:37:36;;;;;;;16.98;11.90;;;;;;;;;;5410276;26;20205;-39
2024/04/09 03:40:03;;;;;;;24.30;11.95;;;;;;;;;;5396620;26;20246;-44
2024/04/09 03:42:29;;;;;;;13.85;11.23;;;;;;;;;;5396643;26;19996;-37
2024/04/09 03:44:56;;;;;;;21.13;11.55;;;;;;;;;;5396229;26;20045;-39
2024/04/09 03:47:22;;;;;;;18.33;12.23;;;;;;;;;;5396558;26;19989;-41
2024/04/09 03:49:49;;;;;;;17.95;11.77;;;;;;;;;;5394169;26;20011;-39
2024/04/09 03:52:16;;;;;;;15.90;11.32;;;;;;;;;;5393694;26;19996;-49
2024/04/09 03:54:42;;;;;;;18.33;11.90;;;;;;;;;;5398875;26;19987;-38
2024/04/09 03:57:09;;;;;;;22.52;11.85;;;;;;;;;;5412346;26;19998;-41
2024/04/09 03:59:35;;;;;;;17.45;11.68;;;;;;;;;;5396562;26;20143;-38
2024/04/09 04:02:03;;;;;;;14.75;11.20;;;;;;;;;;5396369;26;20109;-44
2024/04/09 04:04:30;;;;;;;18.50;11.25;;;;;;;;;;5415476;26;20028;-38
2024/04/09 04:06:56;;;;;;;17.38;11.18;;;;;;;;;;5396315;26;19996;-38
2024/04/09 04:09:23;;;;;;;22.27;11.18;;;;;;;;;;5396306;26;19988;-38
2024/04/09 04:11:51;;;;;;;19.27;11.75;;;;;;;;;;5395694;26;20228;-40
2024/04/09 04:14:17;;;;;;;19.40;11.45;;;;;;;;;;5396125;26;19995;-37
2024/04/09 04:16:44;;;;;;;21.60;12.18;;;;;;;;;;5396368;26;20017;-39
2024/04/09 04:19:11;;;;;;;22.52;12.35;;;;;;;;;;5396004;26;20107;-42
2024/04/09 04:21:38;;;;;;;19.83;11.38;;;;;;;;;;5395908;26;19996;-38
2024/04/09 04:24:04;;;;;;;14.23;10.52;;;;;;;;;;5411378;26;19994;-39
2024/04/09 04:26:31;;;;;;;19.58;11.40;;;;;;;;;;5400243;26;20201;-44
2024/04/09 04:28:59;;;;;;;18.27;11.93;;;;;;;;;;5402503;26;19987;-36
2024/04/09 04:31:25;;;;;;;16.52;11.63;;;;;;;;;;5415608;26;19998;-35
2024/04/09 04:33:52;;;;;;;16.55;11.55;;;;;;;;;;5431458;26;19993;-37
2024/04/09 04:36:20;;;;;;;18.48;11.50;;;;;;;;;;5431359;26;19995;-37
2024/04/09 04:38:47;;;;;;;17.50;11.63;;;;;;;;;;5427102;26;20198;-36
2024/04/09 04:41:14;;;;;;;18.73;11.73;;;;;;;;;;5412671;26;19985;-38
2024/04/09 04:43:41;;;;;;;14.48;11.05;;;;;;;;;;5395911;26;19999;-38
2024/04/09 04:46:08;;;;;;;17.17;11.57;;;;;;;;;;5395832;26;19984;-36
2024/04/09 04:48:35;;;;;;;17.38;11.60;;;;;;;;;;5395683;26;19999;-38
2024/04/09 04:51:02;;;;;;;24.23;11.82;;;;;;;;;;5395741;26;19984;-37
2024/04/09 04:53:28;;;;;;;20.38;11.77;;;;;;;;;;5395582;26;20028;-38
2024/04/09 04:55:55;;;;;;;18.50;12.07;;;;;;;;;;5395648;26;19990;-41
2024/04/09 04:58:22;;;;;;;21.92;13.20;;;;;;;;;;5394212;26;20074;-39
2024/04/09 05:00:49;;;;;;;18.17;12.48;;;;;;;;;;5395678;26;20255;-37
2024/04/09 05:03:15;;;;;;;14.80;11.80;;;;;;;;;;5395489;26;20042;-49
2024/04/09 05:05:42;;;;;;;17.48;11.73;;;;;;;;;;5395777;26;20041;-47
2024/04/09 05:08:08;;;;;;;14.50;11.68;;;;;;;;;;5395615;26;20000;-47
2024/04/09 05:10:37;;;;;;;20.08;12.43;;;;;;;;;;5395597;26;19999;-48
2024/04/09 05:13:04;;;;;;;19.10;12.40;;;;;;;;;;5395392;26;19992;-44
2024/04/09 05:15:31;;;;;;;18.05;12.18;;;;;;;;;;5395489;26;20130;-48
2024/04/09 05:17:57;;;;;;;18.92;12.32;;;;;;;;;;5395325;26;20042;-39
2024/04/09 05:20:26;;;;;;;16.15;12.02;;;;;;;;;;5395233;26;19991;-42
2024/04/09 05:22:52;;;;;;;16.45;12.20;;;;;;;;;;5395371;26;19990;-37
2024/04/09 05:25:19;;;;;;;17.50;12.32;;;;;;;;;;5395302;26;19994;-40
2024/04/09 05:27:46;;;;;;;19.05;12.20;;;;;;;;;;5395095;26;19988;-43
2024/04/09 05:30:13;;;;;;;17.90;11.85;;;;;;;;;;5395281;26;19988;-43
2024/04/09 05:32:42;;;;;;;18.42;12.40;;;;;;;;;;5402688;26;20003;-40
2024/04/09 05:35:14;;;;;;;16.30;12.60;;;;;;;;;;5396779;26;19984;-41
2024/04/09 05:37:42;;;;;;;17.92;11.77;;;;;;;;;;5395056;26;20038;-36
2024/04/09 05:40:11;;;;;;;20.52;11.98;;;;;;;;;;5394943;26;20042;-45
2024/04/09 05:42:38;;;;;;;19.00;11.88;;;;;;;;;;5395108;26;20201;-38
2024/04/09 05:45:06;;;;;;;17.60;12.43;;;;;;;;;;5395223;26;20209;-36
2024/04/09 05:47:32;;;;;;;19.52;12.75;;;;;;;;;;5394766;26;20238;-40
2024/04/09 05:49:59;;;;;;;19.60;11.90;;;;;;;;;;5395056;26;20197;-39
2024/04/09 05:52:29;;;;;;;20.38;12.40;;;;;;;;;;5394674;26;19996;-40
2024/04/09 05:54:57;;;;;;;18.85;11.98;;;;;;;;;;5395042;26;20042;-42
2024/04/09 05:57:23;;;;;;;16.90;12.00;;;;;;;;;;5395036;26;19999;-37
2024/04/09 05:59:51;;;;;;;16.83;11.75;;;;;;;;;;5395043;26;20016;-37
2024/04/09 06:02:18;;;;;;;18.48;12.45;;;;;;;;;;5394774;26;20011;-39
2024/04/09 06:04:45;;;;;;;17.63;11.10;;;;;;;;;;5394921;26;20000;-41
2024/04/09 06:07:11;;;;;;;16.52;11.73;;;;;;;;;;5394422;26;20000;-44
2024/04/09 06:09:38;;;;;;;20.45;12.38;;;;;;;;;;5416649;26;19996;-40
2024/04/09 06:12:05;;;;;;;18.55;12.13;;;;;;;;;;5398152;26;20038;-40
2024/04/09 06:14:32;;;;;;;19.58;11.50;;;;;;;;;;5398274;26;19984;-38
2024/04/09 06:16:58;;;;;;;16.40;12.15;;;;;;;;;;5397936;26;20036;-42
2024/04/09 06:19:25;;;;;;;21.27;11.90;;;;;;;;;;5398254;26;20004;-44
2024/04/09 06:21:52;;;;;;;17.70;12.18;;;;;;;;;;5398052;26;19989;-41
2024/04/09 06:24:18;;;;;;;17.02;12.00;;;;;;;;;;5398032;26;20012;-37
2024/04/09 06:26:45;;;;;;;15.85;10.93;;;;;;;;;;5398126;26;19995;-40
2024/04/09 06:29:12;;;;;;;16.92;12.27;;;;;;;;;;5398043;26;19988;-37
2024/04/09 06:31:39;;;;;;;17.10;12.50;;;;;;;;;;5397814;26;19992;-40
2024/04/09 06:34:06;;;;;;;18.38;12.40;;;;;;;;;;5397975;26;20004;-42
2024/04/09 06:36:32;;;;;;;16.63;12.85;;;;;;;;;;5397834;26;20195;-39
2024/04/09 06:38:59;;;;;;;16.88;12.70;;;;;;;;;;5397982;26;19992;-44
2024/04/09 06:41:25;;;;;;;17.10;12.75;;;;;;;;;;5397679;26;19984;-40
2024/04/09 06:43:52;;;;;;;20.00;13.55;;;;;;;;;;5397908;26;20135;-40
2024/04/09 06:46:18;;;;;;;18.30;13.25;;;;;;;;;;5397802;26;20231;-47
2024/04/09 06:48:45;;;;;;;19.02;13.75;;;;;;;;;;5397634;26;20090;-36
2024/04/09 06:51:12;;;;;;;23.33;13.95;;;;;;;;;;5397502;26;20000;-39
2024/04/09 06:53:38;;;;;;;20.20;14.13;;;;;;;;;;5397697;26;20008;-38
2024/04/09 06:56:05;;;;;;;19.17;13.60;;;;;;;;;;5397426;26;19984;-41
2024/04/09 06:58:32;;;;;;;20.27;14.35;;;;;;;;;;5397762;26;20007;-39
2024/04/09 07:00:59;;;;;;;19.27;14.18;;;;;;;;;;5397679;26;19984;-38
2024/04/09 07:03:25;;;;;;;18.10;13.93;;;;;;;;;;5397307;26;19992;-41
2024/04/09 07:05:52;;;;;;;19.75;13.45;;;;;;;;;;5397553;26;20020;-44
2024/04/09 07:08:18;;;;;;;18.63;15.30;;;;;;;;;;5397513;26;20042;-37
2024/04/09 07:10:53;;;;;;;21.50;14.70;;;;;;;;;;5397318;26;19984;-37
2024/04/09 07:13:21;;;;;;;18.23;14.32;;;;;;;;;;5397248;26;20050;-40
2024/04/09 07:15:47;;;;;;;18.58;13.95;;;;;;;;;;5397360;26;19984;-39
2024/04/09 07:18:14;;;;;;;19.27;13.40;;;;;;;;;;5397107;26;19988;-41
2024/04/09 07:20:40;;;;;;;20.40;14.70;;;;;;;;;;5396333;26;19996;-42
2024/04/09 07:23:07;;;;;;;21.63;14.75;;;;;;;;;;5397261;26;20011;-39
2024/04/09 07:25:34;;;;;;;21.38;14.07;;;;;;;;;;5397102;26;19984;-39
2024/04/09 07:28:00;;;;;;;18.92;13.82;;;;;;;;;;5397208;26;19992;-38
2024/04/09 07:30:27;;;;;;;20.50;14.48;;;;;;;;;;5397196;26;19995;-43
2024/04/09 07:32:53;;;;;;;18.20;13.82;;;;;;;;;;5396855;26;19993;-43
2024/04/09 07:35:20;;;;;;;22.00;14.57;;;;;;;;;;5397141;26;19988;-38
2024/04/09 07:37:46;;;;;;;17.00;14.18;;;;;;;;;;5396988;26;20056;-38
2024/04/09 07:40:14;;;;;;;19.20;13.85;;;;;;;;;;5396925;26;20017;-42
2024/04/09 07:42:40;;;;;;;24.40;14.23;;;;;;;;;;5396954;26;19988;-40
2024/04/09 07:45:09;;;;;;;19.50;13.50;;;;;;;;;;5396993;26;20020;-37
2024/04/09 07:47:37;;;;;;;18.00;13.38;;;;;;;;;;5396688;26;20054;-38
2024/04/09 07:50:09;;;;;;;17.83;13.48;;;;;;;;;;5396881;26;20105;-43
2024/04/09 07:52:39;;;;;;;19.55;13.82;;;;;;;;;;5396642;26;20009;-39
2024/04/09 07:55:08;;;;;;;16.98;13.65;;;;;;;;;;5396655;26;20205;-39
2024/04/09 07:57:40;;;;;;;16.60;13.50;;;;;;;;;;5396765;26;19988;-38
2024/04/09 08:00:14;;;;;;;17.88;13.60;;;;;;;;;;5396653;26;20088;-40
2024/04/09 08:02:46;;;;;;;17.38;13.13;;;;;;;;;;5396691;26;19992;-37
2024/04/09 08:05:12;;;;;;;;;;;;;;;;;;5397200;26;20040;-39
2024/04/09 08:07:39;;;;;;;20.45;13.65;;;;;;;;;;5396522;26;19921;-43
2024/04/09 08:10:11;;;;;;;23.13;13.48;;;;;;;;;;5396634;26;19991;-37
2024/04/09 08:12:41;;;;;;;19.67;13.80;;;;;;;;;;5396462;26;20100;-36
2024/04/09 08:15:08;;;;;;;19.00;13.48;;;;;;;;;;5396433;26;19995;-39
2024/04/09 08:17:37;;;;;;;18.52;13.27;;;;;;;;;;5396451;26;19988;-40
2024/04/09 08:20:07;;;;;;;20.20;13.18;;;;;;;;;;5400971;26;19991;-39
2024/04/09 08:22:35;;;;;;;19.85;13.10;;;;;;;;;;5411993;26;19991;-38
2024/04/09 08:25:01;;;;;;;19.63;13.45;;;;;;;;;;5396515;26;20003;-42
2024/04/09 08:27:28;;;;;;;23.13;13.95;;;;;;;;;;5396162;26;20141;-39
2024/04/09 08:29:54;;;;;;;20.70;13.15;;;;;;;;;;5396443;26;20221;-36
2024/04/09 08:32:21;;;;;;;16.63;12.70;;;;;;;;;;5396064;26;20205;-36
2024/04/09 08:34:48;;;;;;;18.83;12.93;;;;;;;;;;5396337;26;20251;-36
2024/04/09 08:37:15;;;;;;;17.58;13.15;;;;;;;;;;5396223;26;20000;-44
2024/04/09 08:39:41;;;;;;;18.88;13.77;;;;;;;;;;5396306;26;20048;-36
2024/04/09 08:42:08;;;;;;;18.38;13.05;;;;;;;;;;5396169;26;20000;-36
2024/04/09 08:44:36;;;;;;;17.05;12.57;;;;;;;;;;5396021;26;19992;-36
2024/04/09 08:47:03;;;;;;;18.15;12.07;;;;;;;;;;5396083;26;19995;-42
2024/04/09 08:49:30;;;;;;;17.10;12.23;;;;;;;;;;5396074;26;19996;-37
2024/04/09 08:51:57;;;;;;;14.52;11.95;;;;;;;;;;5395656;26;19988;-39
2024/04/09 08:54:24;;;;;;;17.15;13.10;;;;;;;;;;5396077;26;19995;-37
2024/04/09 08:56:52;;;;;;;17.40;12.57;;;;;;;;;;5395994;26;20212;-37
2024/04/09 08:59:18;;;;;;;20.23;12.63;;;;;;;;;;5395789;26;19984;-38
2024/04/09 09:01:45;;;;;;;16.90;12.30;;;;;;;;;;5395828;26;20024;-41
2024/04/09 09:04:13;;;;;;;21.58;12.10;;;;;;;;;;5407782;26;19986;-40
2024/04/09 09:06:46;;;;;;;17.55;12.02;;;;;;;;;;5431160;26;19987;-38
2024/04/09 09:09:41;;;;;;;18.50;12.57;;;;;;;;;;5431429;26;19984;-43
2024/04/09 09:12:09;;;;;;;17.52;12.68;;;;;;;;;;5438105;26;19999;-40
2024/04/09 09:14:36;;;;;;;20.98;11.90;;;;;;;;;;5431286;26;19983;-40
2024/04/09 09:17:06;;;;;;;17.83;12.70;;;;;;;;;;5431026;26;19998;-40
2024/04/09 09:19:34;;;;;;;20.25;12.25;;;;;;;;;;5431226;26;20011;-39
2024/04/09 09:22:02;;;;;;;16.15;11.55;;;;;;;;;;5431215;26;19992;-39
2024/04/09 09:24:29;;;;;;;17.25;12.07;;;;;;;;;;5430909;26;19983;-39
2024/04/09 09:26:59;;;;;;;21.85;12.10;;;;;;;;;;5431025;26;20208;-39
2024/04/09 09:29:26;;;;;;;19.52;11.93;;;;;;;;;;5431281;26;19995;-39
2024/04/09 09:31:53;;;;;;;16.65;11.52;;;;;;;;;;5430706;26;20003;-39
2024/04/09 09:34:26;;;;;;;14.65;11.93;;;;;;;;;;5431020;26;19984;-39
2024/04/09 09:36:59;;;;;;;20.05;12.30;;;;;;;;;;5430806;26;20211;-38
2024/04/09 09:39:29;;;;;;;16.35;11.13;;;;;;;;;;5430945;26;20033;-38
2024/04/09 09:41:56;;;;;;;17.80;12.07;;;;;;;;;;5430818;26;20032;-37
2024/04/09 09:44:24;;;;;;;17.17;11.52;;;;;;;;;;5429776;26;19988;-37
2024/04/09 09:46:51;;;;;;;15.85;12.13;;;;;;;;;;5430778;26;19995;-36
2024/04/09 09:49:19;;;;;;;18.52;11.82;;;;;;;;;;5430781;26;19988;-43
2024/04/09 09:51:46;;;;;;;18.88;11.85;;;;;;;;;;5430261;26;21756;-37
2024/04/09 09:54:14;;;;;;;15.30;11.80;;;;;;;;;;5430628;26;20025;-41
2024/04/09 09:56:42;;;;;;;19.77;11.70;;;;;;;;;;5430566;26;19983;-36
2024/04/09 09:59:10;;;;;;;17.92;11.30;;;;;;;;;;5430406;26;19991;-35
2024/04/09 10:01:37;;;;;;;18.75;10.95;;;;;;;;;;5430203;26;19984;-38
2024/04/09 10:04:05;;;;;;;14.07;10.95;;;;;;;;;;5430505;26;19998;-47
2024/04/09 10:06:31;;;;;;;19.98;11.43;;;;;;;;;;5430238;26;19991;-42
2024/04/09 10:09:05;;;;;;;16.02;11.05;;;;;;;;;;5430207;26;20004;-38
2024/04/09 10:11:34;;;;;;;18.35;11.55;;;;;;;;;;5429998;26;20073;-42
2024/04/09 10:14:03;;;;;;;17.90;11.90;;;;;;;;;;5430149;26;19987;-39
2024/04/09 10:16:30;;;;;;;17.00;11.20;;;;;;;;;;5430079;26;20133;-44
2024/04/09 10:18:59;;;;;;;17.67;10.93;;;;;;;;;;5430221;26;20093;-42
2024/04/09 10:21:31;;;;;;;16.10;11.07;;;;;;;;;;5430169;26;19995;-44
2024/04/09 10:24:04;;;;;;;19.13;10.93;;;;;;;;;;5430083;26;19983;-45
2024/04/09 10:26:31;;;;;;;18.27;10.90;;;;;;;;;;5429697;26;19995;-46
2024/04/09 10:29:08;;;;;;;18.98;11.00;;;;;;;;;;5430052;26;20003;-46
2024/04/09 10:31:44;;;;;;;17.55;11.05;;;;;;;;;;5429692;26;19998;-46
2024/04/09 10:34:11;;;;;;;14.70;10.77;;;;;;;;;;5430059;26;20184;-50
2024/04/09 10:36:38;;;;;;;15.10;10.93;;;;;;;;;;5429761;26;20200;-48
2024/04/09 10:39:07;;;;;;;17.95;11.02;;;;;;;;;;5429761;26;20192;-41
2024/04/09 10:41:33;;;;;;;15.13;10.63;;;;;;;;;;5429745;26;19998;-42
2024/04/09 10:44:00;;;;;;;19.17;10.52;;;;;;;;;;5429882;26;19988;-42
2024/04/09 10:46:26;;;;;;;16.08;10.65;;;;;;;;;;5429510;26;19999;-43
2024/04/09 10:48:53;;;;;;;16.00;10.90;;;;;;;;;;5429758;26;20045;-49
2024/04/09 10:51:20;;;;;;;15.52;10.82;;;;;;;;;;5429354;26;19996;-43
2024/04/09 10:53:46;;;;;;;19.58;11.13;;;;;;;;;;5429400;26;20016;-51
2024/04/09 10:56:14;;;;;;;22.15;11.13;;;;;;;;;;5431417;26;19988;-47
2024/04/09 10:58:41;;;;;;;14.90;10.63;;;;;;;;;;5433157;26;20136;-41
2024/04/09 11:01:14;;;;;;;18.55;10.63;;;;;;;;;;5432940;26;19987;-46
2024/04/09 11:03:40;;;;;;;18.33;10.73;;;;;;;;;;5433262;26;19984;-44
2024/04/09 11:06:07;;;;;;;18.48;10.75;;;;;;;;;;5433098;26;19988;-42
2024/04/09 11:08:34;;;;;;;20.25;11.50;;;;;;;;;;5433177;26;19986;-42
2024/04/09 11:11:01;;;;;;;23.15;11.23;;;;;;;;;;5432957;26;19995;-44
2024/04/09 11:13:28;;;;;;;19.13;11.20;;;;;;;;;;5433083;26;19987;-43
2024/04/09 11:15:55;;;;;;;22.73;11.50;;;;;;;;;;5432818;26;20088;-42
2024/04/09 11:18:22;;;;;;;20.67;11.57;;;;;;;;;;5432797;26;20012;-44
2024/04/09 11:20:55;;;;;;;19.85;11.40;;;;;;;;;;5432723;26;20203;-43
2024/04/09 11:23:25;;;;;;;20.30;11.60;;;;;;;;;;5432700;26;19990;-47
2024/04/09 11:25:52;;;;;;;17.52;11.60;;;;;;;;;;5432759;26;19983;-44
2024/04/09 11:28:19;;;;;;;21.05;12.23;;;;;;;;;;5432532;26;20108;-44
2024/04/09 11:30:51;;;;;;;16.02;11.45;;;;;;;;;;5432557;26;20092;-49
2024/04/09 11:33:18;;;;;;;21.23;12.32;;;;;;;;;;5421966;26;19988;-47
2024/04/09 11:35:45;;;;;;;20.65;15.70;;;;;;;;;;5412872;26;20193;-43
2024/04/09 11:38:12;;;;;;;22.10;14.35;;;;;;;;;;5397774;26;19995;-45
2024/04/09 11:40:39;;;;;;;23.23;13.20;;;;;;;;;;5408544;26;20205;-43
2024/04/09 11:43:06;;;;;;;17.33;13.55;;;;;;;;;;5415840;26;20002;-37
2024/04/09 11:45:36;;;;;;;19.13;13.30;;;;;;;;;;5404699;26;19998;-41
2024/04/09 11:48:06;;;;;;;18.58;13.07;;;;;;;;;;5421019;26;19996;-37
2024/04/09 11:50:32;;;;;;;22.33;12.73;;;;;;;;;;5418419;26;19993;-44
2024/04/09 11:52:59;;;;;;;18.85;12.95;;;;;;;;;;5409233;26;20003;-40
2024/04/09 11:55:26;;;;;;;20.08;12.68;;;;;;;;;;5417091;26;19996;-37
2024/04/09 11:57:52;;;;;;;18.88;12.85;;;;;;;;;;5415097;26;20008;-42
2024/04/09 12:00:19;;;;;;;20.60;11.82;;;;;;;;;;5411620;26;19993;-39
2024/04/09 12:02:46;;;;;;;20.48;12.40;;;;;;;;;;5413823;26;20139;-38
2024/04/09 12:05:13;;;;;;;23.70;12.23;;;;;;;;;;5401312;26;19996;-38
2024/04/09 12:07:40;;;;;;;22.45;11.90;;;;;;;;;;5400553;26;20205;-42
2024/04/09 12:10:07;;;;;;;19.95;11.52;;;;;;;;;;5418381;26;20025;-47
2024/04/09 12:12:34;;;;;;;25.33;12.25;;;;;;;;;;5431852;26;20104;-41
2024/04/09 12:15:03;;;;;;;21.02;11.88;;;;;;;;;;5431255;26;20004;-39
2024/04/09 12:17:30;;;;;;;20.67;11.75;;;;;;;;;;5431379;26;20149;-39
2024/04/09 12:19:57;;;;;;;17.88;12.02;;;;;;;;;;5430480;26;20015;-39
2024/04/09 12:22:23;;;;;;;22.45;11.77;;;;;;;;;;5431413;26;19987;-43
2024/04/09 12:24:50;;;;;;;15.43;12.27;;;;;;;;;;5429650;26;19995;-41
2024/04/09 12:27:16;;;;;;;20.85;12.15;;;;;;;;;;5428939;26;19996;-43
2024/04/09 12:29:43;;;;;;;20.75;11.82;;;;;;;;;;5429078;26;19991;-40
2024/04/09 12:32:10;;;;;;;22.58;12.40;;;;;;;;;;5429052;26;19995;-47
2024/04/09 12:34:37;;;;;;;27.98;13.23;;;;;;;;;;5430095;26;19983;-48
2024/04/09 12:37:05;;;;;;;19.88;11.98;;;;;;;;;;5430269;26;20003;-49
2024/04/09 12:39:32;;;;;;;23.83;11.70;;;;;;;;;;5431087;26;19990;-48
2024/04/09 12:41:58;;;;;;;19.63;12.30;;;;;;;;;;5431581;26;20013;-49
2024/04/09 12:44:26;;;;;;;24.88;13.07;;;;;;;;;;5431339;26;19983;-43
2024/04/09 12:46:52;;;;;;;19.98;11.52;;;;;;;;;;5431640;26;20201;-49
2024/04/09 12:49:28;;;;;;;25.13;14.75;;;;;;;;;;5431662;26;20084;-51
2024/04/09 12:51:55;;;;;;;27.50;17.88;;;;;;;;;;5431178;26;20085;-50
2024/04/09 12:54:23;;;;;;;25.17;14.98;;;;;;;;;;5431856;26;20092;-46
2024/04/09 12:56:50;;;;;;;23.42;14.23;;;;;;;;;;5431519;26;20036;-46
2024/04/09 12:59:17;;;;;;;19.00;13.18;;;;;;;;;;5431311;26;20041;-45
2024/04/09 13:01:44;;;;;;;21.13;12.60;;;;;;;;;;5431467;26;20204;-49
2024/04/09 13:04:11;;;;;;;19.13;11.23;;;;;;;;;;5431500;26;20193;-52
2024/04/09 13:06:38;;;;;;;23.15;11.35;;;;;;;;;;5431254;26;19998;-46
2024/04/09 13:09:04;;;;;;;15.80;10.90;;;;;;;;;;5431385;26;20002;-50
2024/04/09 13:11:31;;;;;;;20.15;11.95;;;;;;;;;;5431229;26;19995;-44
2024/04/09 13:13:59;;;;;;;19.00;11.27;;;;;;;;;;5431110;26;19995;-50
2024/04/09 13:16:25;;;;;;;22.27;10.95;;;;;;;;;;5431144;26;19980;-51
2024/04/09 13:18:52;;;;;;;18.73;10.88;;;;;;;;;;5429971;26;19988;-45
2024/04/09 13:21:18;;;;;;;18.27;10.95;;;;;;;;;;5430895;26;19998;-50
2024/04/09 13:23:45;;;;;;;21.92;11.23;;;;;;;;;;5431260;26;20145;-50
2024/04/09 13:26:12;;;;;;;16.75;11.60;;;;;;;;;;5431090;26;19986;-44
2024/04/09 13:28:39;;;;;;;20.38;11.90;;;;;;;;;;5430864;26;20007;-44
2024/04/09 13:31:05;;;;;;;17.33;11.13;;;;;;;;;;5431010;26;19987;-48
2024/04/09 13:33:32;;;;;;;17.70;10.98;;;;;;;;;;5430849;26;20019;-46
2024/04/09 13:35:59;;;;;;;19.02;11.00;;;;;;;;;;5430797;26;19999;-44
2024/04/09 13:38:25;;;;;;;15.52;11.15;;;;;;;;;;5430868;26;19992;-44
2024/04/09 13:40:52;;;;;;;17.40;11.05;;;;;;;;;;5430876;26;19999;-44
2024/04/09 13:43:19;;;;;;;23.25;11.50;;;;;;;;;;5430549;26;19991;-45
2024/04/09 13:45:45;;;;;;;21.92;11.35;;;;;;;;;;5430807;26;20193;-43
2024/04/09 13:48:12;;;;;;;16.80;11.65;;;;;;;;;;5430710;26;20242;-43
2024/04/09 13:50:39;;;;;;;18.88;11.98;;;;;;;;;;5430497;26;20048;-42
2024/04/09 13:53:06;;;;;;;16.00;11.13;;;;;;;;;;5430398;26;20000;-47
2024/04/09 13:55:32;;;;;;;19.38;11.75;;;;;;;;;;5430547;26;20018;-46
2024/04/09 13:58:00;;;;;;;20.50;11.88;;;;;;;;;;5430299;26;19991;-47
2024/04/09 14:00:27;;;;;;;18.48;11.68;;;;;;;;;;5430542;26;19995;-43
2024/04/09 14:02:54;;;;;;;22.75;12.30;;;;;;;;;;5430433;26;19991;-46
2024/04/09 14:05:22;;;;;;;19.50;11.48;;;;;;;;;;5430341;26;19987;-48
2024/04/09 14:07:49;;;;;;;18.77;11.73;;;;;;;;;;5430403;26;19991;-42
2024/04/09 14:10:15;;;;;;;20.10;11.85;;;;;;;;;;5430445;26;20137;-48
2024/04/09 14:12:42;;;;;;;19.85;12.63;;;;;;;;;;5429980;26;20053;-41
2024/04/09 14:15:09;;;;;;;20.25;12.55;;;;;;;;;;5430265;26;19988;-38
2024/04/09 14:17:36;;;;;;;18.08;12.48;;;;;;;;;;5430213;26;19995;-42
2024/04/09 14:20:08;;;;;;;19.92;12.57;;;;;;;;;;5430089;26;20019;-41